Time;durP1;ratioP1;P1;durP2;ratioP2;P2;SDS_P1;SDS_P2;PMS_P1;PMS_P2;Temp;Humidity;BMP_temperature;BMP_pressure;BME280_temperature;BME280_humidity;BME280_pressure;Samples;Min_cycle;Max_cycle;Signal;HPM_P1;HPM_P2
2021/12/03 00:01:40;;;;;;;15.10;10.07;;;-0.60;99.90;;;;;;7373661;32;20621;-59
2021/12/03 00:05:42;;;;;;;13.70;10.73;;;-0.50;99.90;;;;;;7378391;32;20130;-59
2021/12/03 00:09:44;;;;;;;16.77;11.12;;;-0.50;99.90;;;;;;7378799;32;20106;-59
2021/12/03 00:13:46;;;;;;;13.57;10.82;;;-0.50;99.90;;;;;;7380869;32;20179;-58
2021/12/03 00:17:47;;;;;;;20.58;12.18;;;-0.60;99.90;;;;;;7379313;32;20491;-59
2021/12/03 00:21:49;;;;;;;17.40;12.95;;;-0.60;99.90;;;;;;7380578;32;20106;-59
2021/12/03 00:25:51;;;;;;;17.73;12.45;;;-0.50;99.90;;;;;;7380687;32;20570;-59
2021/12/03 00:29:53;;;;;;;19.73;13.62;;;-0.60;99.90;;;;;;7380231;32;20569;-60
2021/12/03 00:33:54;;;;;;;19.25;13.48;;;-0.50;99.90;;;;;;7381344;32;20122;-59
2021/12/03 00:37:56;;;;;;;19.42;13.25;;;-0.50;99.90;;;;;;7382687;32;20111;-59
2021/12/03 00:42:01;;;;;;;19.65;13.90;;;-0.50;99.90;;;;;;7383510;32;20740;-59
2021/12/03 00:46:08;;;;;;;19.65;13.40;;;-0.40;99.90;;;;;;7381589;32;20107;-59
2021/12/03 00:50:14;;;;;;;21.87;15.50;;;-0.30;99.90;;;;;;7370746;32;20227;-60
2021/12/03 00:54:16;;;;;;;20.75;15.40;;;-0.20;99.90;;;;;;7372267;32;20125;-59
2021/12/03 00:58:17;;;;;;;23.83;15.95;;;0.00;99.90;;;;;;7369701;32;20171;-59
2021/12/03 01:02:20;;;;;;;22.15;16.02;;;0.30;99.90;;;;;;7371165;32;20198;-59
2021/12/03 01:06:21;;;;;;;25.80;17.60;;;0.50;99.90;;;;;;7371261;32;20122;-58
2021/12/03 01:10:25;;;;;;;32.47;20.10;;;0.40;99.90;;;;;;7368353;32;20171;-59
2021/12/03 01:14:27;;;;;;;27.52;19.30;;;0.40;99.90;;;;;;7368457;32;20105;-60
2021/12/03 01:18:29;;;;;;;34.20;21.85;;;0.50;99.90;;;;;;7368567;32;20482;-59
2021/12/03 01:22:31;;;;;;;30.35;20.05;;;0.60;99.90;;;;;;7372899;32;20189;-59
2021/12/03 01:26:34;;;;;;;27.58;18.83;;;0.70;99.90;;;;;;7386713;32;20484;-59
2021/12/03 01:30:36;;;;;;;28.58;19.73;;;0.80;99.90;;;;;;7381683;32;20103;-60
2021/12/03 01:34:37;;;;;;;26.75;18.33;;;0.90;99.90;;;;;;7381282;32;20362;-60
2021/12/03 01:38:39;;;;;;;29.70;20.45;;;0.90;99.90;;;;;;7381723;32;20550;-59
2021/12/03 01:42:44;;;;;;;34.13;21.98;;;0.90;99.90;;;;;;7378399;32;20223;-59
2021/12/03 01:46:46;;;;;;;34.30;21.23;;;0.90;99.90;;;;;;7366758;32;20111;-59
2021/12/03 01:50:49;;;;;;;30.05;20.92;;;1.10;99.90;;;;;;7363863;32;20129;-59
2021/12/03 01:54:51;;;;;;;31.17;20.48;;;1.10;99.90;;;;;;7381490;32;20201;-59
2021/12/03 01:58:53;;;;;;;33.67;22.10;;;1.10;99.90;;;;;;7381661;32;20102;-59
2021/12/03 02:02:56;;;;;;;32.00;21.50;;;1.10;99.90;;;;;;7376355;32;20112;-59
2021/12/03 02:06:58;;;;;;;32.95;20.73;;;1.10;99.90;;;;;;7378413;32;20198;-59
2021/12/03 02:11:00;;;;;;;37.17;21.80;;;1.10;99.90;;;;;;7377402;32;20135;-59
2021/12/03 02:15:03;;;;;;;40.80;22.80;;;1.20;99.90;;;;;;7374976;32;20153;-59
2021/12/03 02:19:05;;;;;;;38.97;22.80;;;1.30;99.90;;;;;;7381093;32;20133;-58
2021/12/03 02:23:07;;;;;;;33.20;20.52;;;1.30;99.90;;;;;;7377797;32;20225;-59
2021/12/03 02:27:09;;;;;;;37.50;22.27;;;1.40;99.90;;;;;;7375131;32;20122;-59
2021/12/03 02:31:13;;;;;;;36.05;21.23;;;1.40;99.90;;;;;;7377654;32;20911;-59
2021/12/03 02:35:16;;;;;;;37.05;22.70;;;1.40;99.90;;;;;;7376783;32;20116;-59
2021/12/03 02:39:18;;;;;;;34.22;21.95;;;1.50;99.90;;;;;;7374717;32;20127;-59
2021/12/03 02:43:21;;;;;;;41.47;23.17;;;1.50;99.90;;;;;;7375200;32;20401;-59
2021/12/03 02:47:23;;;;;;;36.97;22.10;;;1.50;99.90;;;;;;7378008;32;20493;-59
2021/12/03 02:51:25;;;;;;;40.97;23.05;;;1.50;99.90;;;;;;7375745;32;20597;-59
2021/12/03 02:55:27;;;;;;;43.75;22.77;;;1.60;99.90;;;;;;7375588;32;20346;-59
2021/12/03 02:59:30;;;;;;;39.15;21.15;;;1.70;99.90;;;;;;7370161;32;20131;-58
2021/12/03 03:03:37;;;;;;;43.10;21.23;;;1.70;99.90;;;;;;7364281;32;20103;-59
2021/12/03 03:07:39;;;;;;;43.92;21.35;;;1.60;99.90;;;;;;7366710;32;20206;-58
2021/12/03 03:11:41;;;;;;;40.03;19.33;;;1.70;99.90;;;;;;7378097;32;20228;-59
2021/12/03 03:15:44;;;;;;;38.35;20.60;;;1.70;99.90;;;;;;7363908;32;20405;-59
2021/12/03 03:19:45;;;;;;;42.55;20.50;;;1.70;99.90;;;;;;7379979;32;20512;-59
2021/12/03 03:23:47;;;;;;;43.00;19.80;;;1.80;99.90;;;;;;7369189;32;20111;-59
2021/12/03 03:27:50;;;;;;;39.10;19.92;;;1.80;99.90;;;;;;7373440;32;20112;-58
2021/12/03 03:31:52;;;;;;;38.47;20.12;;;1.80;99.90;;;;;;7377784;32;20260;-59
2021/12/03 03:35:54;;;;;;;40.58;19.62;;;1.80;99.90;;;;;;7369231;32;20102;-58
2021/12/03 03:39:55;;;;;;;36.20;18.92;;;1.90;99.90;;;;;;7372383;32;20515;-58
2021/12/03 03:43:57;;;;;;;39.92;20.20;;;2.00;99.90;;;;;;7376378;32;20135;-59
2021/12/03 03:48:00;;;;;;;40.38;19.62;;;2.00;99.90;;;;;;7378174;32;20359;-59
2021/12/03 03:52:02;;;;;;;38.22;19.20;;;2.00;99.90;;;;;;7383194;32;20241;-59
2021/12/03 03:56:05;;;;;;;36.97;18.75;;;2.00;99.90;;;;;;7384148;32;20130;-59
2021/12/03 04:00:11;;;;;;;40.97;18.50;;;2.00;99.90;;;;;;7381574;32;20107;-58
2021/12/03 04:04:12;;;;;;;40.08;18.55;;;2.00;99.90;;;;;;7378098;32;20103;-58
2021/12/03 04:08:14;;;;;;;38.85;18.90;;;2.00;99.90;;;;;;7384089;32;20917;-58
2021/12/03 04:12:16;;;;;;;36.35;17.33;;;2.00;99.90;;;;;;7380962;32;20108;-58
2021/12/03 04:16:18;;;;;;;34.95;18.60;;;2.10;99.90;;;;;;7382883;32;20553;-58
2021/12/03 04:20:21;;;;;;;39.35;18.08;;;2.10;99.90;;;;;;7384421;32;20115;-59
2021/12/03 04:24:24;;;;;;;39.65;17.27;;;2.10;99.90;;;;;;7380812;32;20102;-59
2021/12/03 04:28:26;;;;;;;31.98;17.62;;;2.10;99.90;;;;;;7384236;32;20510;-60
2021/12/03 04:32:28;;;;;;;39.20;16.87;;;2.10;99.90;;;;;;7383008;32;20154;-59
2021/12/03 04:36:29;;;;;;;29.42;16.15;;;2.20;99.90;;;;;;7384575;32;20112;-59
2021/12/03 04:40:33;;;;;;;34.95;17.23;;;2.20;99.90;;;;;;7379472;32;20205;-59
2021/12/03 04:44:35;;;;;;;28.35;17.00;;;2.20;99.90;;;;;;7383111;32;20553;-59
2021/12/03 04:48:37;;;;;;;30.02;15.35;;;2.20;99.90;;;;;;7382991;32;20129;-59
2021/12/03 04:52:39;;;;;;;28.77;15.18;;;2.30;99.90;;;;;;7380487;32;20107;-59
2021/12/03 04:56:40;;;;;;;25.92;14.60;;;2.30;99.90;;;;;;7377568;32;20220;-59
2021/12/03 05:00:52;;;;;;;28.95;15.48;;;2.30;99.90;;;;;;7381054;32;20249;-59
2021/12/03 05:04:59;;;;;;;34.85;16.60;;;2.30;99.90;;;;;;7382281;32;20123;-59
2021/12/03 05:09:00;;;;;;;27.75;15.50;;;2.30;99.90;;;;;;7381286;32;20095;-58
2021/12/03 05:13:27;;;;;;;35.00;16.48;;;2.30;99.90;;;;;;7370870;32;20535;-58
2021/12/03 05:17:28;;;;;;;31.95;15.70;;;2.40;99.90;;;;;;7379695;32;20125;-58
2021/12/03 05:21:30;;;;;;;26.17;15.35;;;2.40;99.90;;;;;;7382556;32;20240;-58
2021/12/03 05:25:33;;;;;;;30.42;15.27;;;2.40;99.90;;;;;;7381854;32;20232;-58
2021/12/03 05:29:35;;;;;;;28.10;17.00;;;2.30;99.90;;;;;;7381732;32;20129;-58
2021/12/03 05:33:37;;;;;;;28.25;15.93;;;2.30;99.90;;;;;;7373635;32;20122;-58
2021/12/03 05:37:39;;;;;;;32.13;17.02;;;2.40;99.90;;;;;;7372869;32;20225;-59
2021/12/03 05:41:41;;;;;;;30.42;15.13;;;2.40;99.90;;;;;;7378215;32;20531;-59
2021/12/03 05:45:44;;;;;;;33.10;16.67;;;2.50;99.90;;;;;;7381185;32;20137;-59
2021/12/03 05:49:46;;;;;;;29.52;15.55;;;2.50;99.90;;;;;;7381364;32;20156;-59
2021/12/03 05:53:47;;;;;;;31.23;16.73;;;2.40;99.90;;;;;;7380856;32;20135;-59
2021/12/03 05:57:49;;;;;;;30.20;15.50;;;2.50;99.90;;;;;;7372608;32;20226;-59
2021/12/03 06:01:51;;;;;;;32.58;15.95;;;2.50;99.90;;;;;;7373191;32;20110;-60
2021/12/03 06:05:53;;;;;;;30.10;17.12;;;2.50;99.90;;;;;;7366131;32;20174;-59
2021/12/03 06:09:54;;;;;;;35.03;17.98;;;2.60;99.90;;;;;;7373562;32;20194;-59
2021/12/03 06:13:56;;;;;;;34.90;17.73;;;2.60;99.90;;;;;;7377312;32;20608;-59
2021/12/03 06:17:58;;;;;;;33.53;17.70;;;2.70;99.90;;;;;;7376546;32;20127;-59
2021/12/03 06:22:00;;;;;;;33.80;15.82;;;2.70;99.90;;;;;;7379889;32;20114;-59
2021/12/03 06:26:04;;;;;;;43.33;18.20;;;2.80;99.90;;;;;;7378235;32;20235;-59
2021/12/03 06:30:10;;;;;;;32.40;15.98;;;2.80;99.90;;;;;;7377536;32;20699;-60
2021/12/03 06:34:11;;;;;;;32.60;17.13;;;2.80;99.90;;;;;;7375919;32;20221;-59
2021/12/03 06:38:15;;;;;;;28.48;15.98;;;2.80;99.90;;;;;;7358654;32;20176;-59
2021/12/03 06:42:16;;;;;;;29.63;15.82;;;2.80;99.90;;;;;;7378065;32;20107;-59
2021/12/03 06:46:19;;;;;;;38.92;16.75;;;2.80;99.90;;;;;;7380144;32;20102;-60
2021/12/03 06:50:21;;;;;;;33.28;16.40;;;2.90;99.90;;;;;;7370451;32;20851;-59
2021/12/03 06:54:25;;;;;;;38.42;17.37;;;2.80;99.90;;;;;;7374043;32;20814;-60
2021/12/03 06:58:27;;;;;;;36.03;17.15;;;2.90;99.90;;;;;;7372739;32;20131;-59
2021/12/03 07:02:29;;;;;;;42.58;17.48;;;2.90;99.90;;;;;;7368205;32;20107;-60
2021/12/03 07:06:31;;;;;;;38.70;17.27;;;2.90;99.90;;;;;;7380356;32;20106;-59
2021/12/03 07:10:32;;;;;;;38.53;16.65;;;2.90;99.90;;;;;;7376137;32;20896;-59
2021/12/03 07:14:34;;;;;;;33.45;15.43;;;3.00;99.90;;;;;;7369224;32;20138;-59
2021/12/03 07:18:37;;;;;;;29.55;14.98;;;3.00;99.90;;;;;;7375196;32;20139;-60
2021/12/03 07:22:39;;;;;;;30.60;14.02;;;3.00;99.90;;;;;;7369151;32;20103;-59
2021/12/03 07:26:41;;;;;;;29.27;13.45;;;3.00;99.90;;;;;;7367381;32;20147;-59
2021/12/03 07:30:42;;;;;;;28.08;13.43;;;3.10;99.90;;;;;;7367762;32;20621;-58
2021/12/03 07:34:45;;;;;;;25.08;11.70;;;3.10;99.90;;;;;;7365049;32;20868;-59
2021/12/03 07:38:47;;;;;;;25.23;11.27;;;3.10;99.90;;;;;;7370426;32;20130;-59
2021/12/03 07:42:48;;;;;;;24.15;9.18;;;3.10;99.90;;;;;;7367824;32;20479;-59
2021/12/03 07:46:50;;;;;;;26.75;9.20;;;3.10;99.90;;;;;;7368570;32;20123;-58
2021/12/03 07:50:54;;;;;;;18.87;8.98;;;3.00;99.90;;;;;;7362738;32;20118;-58
2021/12/03 07:54:55;;;;;;;17.37;7.55;;;3.10;99.90;;;;;;7366305;32;20103;-58
2021/12/03 07:58:57;;;;;;;24.08;8.88;;;3.20;99.90;;;;;;7369173;32;20639;-57
2021/12/03 08:02:59;;;;;;;18.20;7.40;;;3.20;99.90;;;;;;7374670;32;20190;-57
2021/12/03 08:07:01;;;;;;;25.62;7.43;;;3.20;99.90;;;;;;7367771;32;20440;-58
2021/12/03 08:11:03;;;;;;;15.70;6.00;;;3.10;99.90;;;;;;7367907;32;20210;-58
2021/12/03 08:15:05;;;;;;;19.55;6.35;;;3.20;99.90;;;;;;7369275;32;20410;-58
2021/12/03 08:19:06;;;;;;;15.20;5.65;;;3.10;99.90;;;;;;7363547;32;20145;-58
2021/12/03 08:23:08;;;;;;;27.23;5.87;;;3.20;99.90;;;;;;7359575;32;20726;-58
2021/12/03 08:27:10;;;;;;;15.07;6.15;;;3.20;99.90;;;;;;7363819;32;20511;-58
2021/12/03 08:31:14;;;;;;;14.23;5.15;;;3.10;99.90;;;;;;7368152;32;20118;-58
2021/12/03 08:35:16;;;;;;;16.52;4.95;;;3.30;99.90;;;;;;7375935;32;20107;-58
2021/12/03 08:39:19;;;;;;;17.02;5.78;;;3.30;99.90;;;;;;7381754;32;20110;-58
2021/12/03 08:43:21;;;;;;;21.42;5.37;;;3.30;99.90;;;;;;7381859;32;20547;-58
2021/12/03 08:47:22;;;;;;;18.48;4.70;;;3.40;99.90;;;;;;7377996;32;20844;-59
2021/12/03 08:51:36;;;;;;;13.13;4.80;;;3.30;99.90;;;;;;7370400;32;20130;-59
2021/12/03 08:55:39;;;;;;;13.05;4.80;;;3.40;99.90;;;;;;7375115;32;20107;-59
2021/12/03 08:59:41;;;;;;;12.10;3.95;;;3.30;99.90;;;;;;7366941;32;20358;-60
2021/12/03 09:03:42;;;;;;;12.65;4.32;;;3.40;99.90;;;;;;7366146;32;20229;-59
2021/12/03 09:07:44;;;;;;;14.57;4.40;;;3.50;99.90;;;;;;7370090;32;20776;-59
2021/12/03 09:11:54;;;;;;;13.38;3.30;;;3.50;99.90;;;;;;7377786;32;20136;-58
2021/12/03 09:16:04;;;;;;;15.75;3.65;;;3.50;99.90;;;;;;7367676;32;20538;-58
2021/12/03 09:24:14;;;;;;;17.27;4.27;;;3.50;99.90;;;;;;7372319;32;20107;-57
2021/12/03 09:28:16;;;;;;;12.40;4.03;;;3.50;99.90;;;;;;7381398;32;20115;-57
2021/12/03 09:32:22;;;;;;;13.07;4.60;;;3.60;99.90;;;;;;7379999;32;20141;-58
2021/12/03 09:36:24;;;;;;;20.02;4.28;;;3.60;99.90;;;;;;7375906;32;20527;-58
2021/12/03 09:40:30;;;;;;;11.15;3.65;;;3.60;99.90;;;;;;7369485;32;20617;-58
2021/12/03 09:44:31;;;;;;;14.35;4.03;;;3.70;99.90;;;;;;7374490;32;20271;-58
2021/12/03 09:48:48;;;;;;;14.48;3.40;;;3.60;99.90;;;;;;7377337;32;20216;-58
2021/12/03 09:53:24;;;;;;;10.90;3.83;;;3.60;99.90;;;;;;7368986;32;20555;-58
2021/12/03 10:01:39;;;;;;;13.48;3.97;;;3.70;99.90;;;;;;7374130;32;20114;-59
2021/12/03 10:18:32;;;;;;;16.73;3.17;;;4.10;99.90;;;;;;7368531;32;20120;-59
2021/12/03 10:40:46;;;;;;;8.23;2.72;;;4.40;99.90;;;;;;7368869;32;20126;-59
2021/12/03 10:45:06;;;;;;;9.88;2.70;;;4.50;99.90;;;;;;7373351;32;20562;-58
2021/12/03 10:49:40;;;;;;;11.70;2.65;;;4.50;99.90;;;;;;7375923;32;20137;-59
2021/12/03 10:53:53;;;;;;;7.53;2.30;;;4.60;99.90;;;;;;7370291;32;20144;-58
2021/12/03 10:58:24;;;;;;;11.40;2.72;;;4.50;99.90;;;;;;7367234;32;20228;-58
2021/12/03 11:03:10;;;;;;;10.45;3.22;;;4.40;99.90;;;;;;7367419;32;20191;-59
2021/12/03 11:55:45;;;;;;;8.30;2.10;;;4.30;99.90;;;;;;7371885;32;20111;-59
2021/12/03 12:17:54;;;;;;;8.23;2.00;;;4.50;99.90;;;;;;7359229;32;20107;-59
2021/12/03 13:12:52;;;;;;;5.90;2.05;;;4.80;99.90;;;;;;7370785;32;20735;-59
2021/12/03 13:35:27;;;;;;;8.55;1.95;;;4.90;99.90;;;;;;7370319;32;20205;-59
2021/12/03 13:40:35;;;;;;;3.47;1.40;;;5.00;99.90;;;;;;7369729;32;20714;-58
2021/12/03 14:10:18;;;;;;;4.70;1.67;;;4.90;99.90;;;;;;7346649;32;20095;-58
2021/12/03 14:41:16;;;;;;;4.60;1.30;;;4.90;99.90;;;;;;7373028;32;20114;-59
2021/12/03 14:45:28;;;;;;;3.10;1.37;;;5.20;99.90;;;;;;7366720;32;20125;-59
2021/12/03 14:57:57;;;;;;;5.93;2.28;;;4.80;99.90;;;;;;7370250;32;20134;-58
2021/12/03 15:02:26;;;;;;;5.28;1.90;;;4.50;99.90;;;;;;7363933;32;20103;-58
2021/12/03 15:06:54;;;;;;;5.35;1.77;;;4.30;99.90;;;;;;7370694;32;20134;-58
2021/12/03 15:11:32;;;;;;;4.85;2.10;;;4.00;99.90;;;;;;7367838;32;20232;-59
2021/12/03 15:20:11;;;;;;;6.28;3.40;;;3.80;99.90;;;;;;7369642;32;20122;-59
2021/12/03 15:33:06;;;;;;;5.50;2.40;;;3.70;99.90;;;;;;7369796;32;20855;-59
2021/12/03 15:37:20;;;;;;;5.70;2.25;;;3.60;99.90;;;;;;7368512;32;20138;-59
2021/12/03 15:51:50;;;;;;;4.82;2.08;;;3.60;99.90;;;;;;7371541;32;20365;-59
2021/12/03 16:03:30;;;;;;;4.90;2.78;;;3.50;99.90;;;;;;7363190;32;20718;-58
2021/12/03 16:46:16;;;;;;;7.30;2.97;;;3.50;99.90;;;;;;7366774;32;20125;-59
2021/12/03 16:54:44;;;;;;;6.97;2.55;;;3.50;99.90;;;;;;7369166;32;20448;-59
2021/12/03 16:58:46;;;;;;;5.20;3.10;;;3.50;99.90;;;;;;7374103;32;20115;-60
2021/12/03 17:03:09;;;;;;;6.45;3.00;;;3.50;99.90;;;;;;7370542;32;20220;-59
2021/12/03 17:58:41;;;;;;;6.32;3.25;;;3.30;99.90;;;;;;7371173;32;20115;-59
2021/12/03 18:02:51;;;;;;;6.97;3.40;;;3.30;99.90;;;;;;7378602;32;20115;-59
2021/12/03 18:15:27;;;;;;;8.32;3.72;;;3.40;99.90;;;;;;7375513;32;20118;-59
2021/12/03 18:58:09;;;;;;;8.95;4.70;;;3.40;99.90;;;;;;7373133;32;20111;-60
2021/12/03 19:02:11;;;;;;;5.90;4.22;;;3.40;99.90;;;;;;7379431;32;20153;-59
2021/12/03 19:06:21;;;;;;;6.55;4.22;;;3.40;99.90;;;;;;7375155;32;20568;-59
2021/12/03 19:10:25;;;;;;;9.18;4.47;;;3.40;99.90;;;;;;7376949;32;20629;-60
2021/12/03 19:14:31;;;;;;;9.98;4.60;;;3.40;99.90;;;;;;7379274;32;20198;-60
2021/12/03 19:18:33;;;;;;;7.82;5.18;;;3.40;99.90;;;;;;7376037;32;20106;-60
2021/12/03 19:22:35;;;;;;;7.65;3.78;;;3.40;99.90;;;;;;7381060;32;20107;-59
2021/12/03 19:26:43;;;;;;;8.27;4.03;;;3.40;99.90;;;;;;7376692;32;20202;-60
2021/12/03 19:30:44;;;;;;;9.05;3.87;;;3.40;99.90;;;;;;7375196;32;20107;-60
2021/12/03 19:34:46;;;;;;;5.80;3.53;;;3.40;99.90;;;;;;7376908;32;20107;-59
2021/12/03 19:38:53;;;;;;;7.20;2.87;;;3.50;99.90;;;;;;7377936;32;20115;-60
2021/12/03 19:42:59;;;;;;;8.60;3.30;;;3.50;99.90;;;;;;7378445;32;20107;-60
2021/12/03 19:47:02;;;;;;;3.90;2.97;;;3.60;99.90;;;;;;7376122;32;20701;-59
2021/12/03 19:51:13;;;;;;;5.15;2.42;;;3.60;99.90;;;;;;7380242;32;20197;-59
2021/12/03 19:55:14;;;;;;;5.50;2.97;;;3.60;99.90;;;;;;7372608;32;20107;-59
2021/12/03 19:59:18;;;;;;;3.75;2.62;;;3.60;99.90;;;;;;7379370;32;20145;-60
2021/12/03 20:03:19;;;;;;;4.82;2.50;;;3.60;99.90;;;;;;7370158;32;20126;-60
2021/12/03 20:07:21;;;;;;;5.40;2.53;;;3.70;99.90;;;;;;7365818;32;20296;-59
2021/12/03 20:11:37;;;;;;;3.70;2.30;;;3.70;99.90;;;;;;7372566;32;20586;-59
2021/12/03 20:16:11;;;;;;;6.78;2.05;;;3.80;99.90;;;;;;7368485;32;20760;-59
2021/12/03 20:20:13;;;;;;;4.07;2.37;;;3.80;99.90;;;;;;7369610;32;20126;-60
2021/12/03 20:28:37;;;;;;;8.60;3.47;;;3.60;99.90;;;;;;7376132;32;20386;-59
2021/12/03 20:32:39;;;;;;;5.75;3.83;;;3.70;99.90;;;;;;7377072;32;20133;-60
2021/12/03 20:36:48;;;;;;;7.45;3.53;;;3.70;99.90;;;;;;7378072;32;20103;-59
2021/12/03 20:40:54;;;;;;;7.95;3.78;;;3.70;99.90;;;;;;7377524;32;20237;-59
2021/12/03 20:45:21;;;;;;;9.73;4.85;;;3.80;99.90;;;;;;7375539;32;20696;-60
2021/12/03 21:10:46;;;;;;;4.20;2.83;;;3.80;99.90;;;;;;7376890;32;20463;-59
2021/12/03 21:15:13;;;;;;;5.80;3.20;;;3.80;99.90;;;;;;7379239;32;20522;-59
2021/12/03 21:19:28;;;;;;;5.00;2.70;;;3.80;99.90;;;;;;7378596;32;20748;-59
2021/12/03 21:23:34;;;;;;;5.03;2.70;;;3.80;99.90;;;;;;7382774;32;20135;-59
2021/12/03 21:27:39;;;;;;;4.50;2.22;;;3.80;99.90;;;;;;7382169;32;20125;-58
2021/12/03 21:44:02;;;;;;;2.50;0.98;;;3.90;99.90;;;;;;7376775;32;20127;-59
2021/12/03 21:48:04;;;;;;;1.52;0.90;;;4.00;99.90;;;;;;7379243;32;20107;-59
2021/12/03 21:52:06;;;;;;;3.85;0.88;;;3.90;99.90;;;;;;7377186;32;20149;-59
2021/12/03 21:56:07;;;;;;;2.17;0.90;;;3.90;99.90;;;;;;7375028;32;20577;-59
2021/12/03 22:00:10;;;;;;;1.33;1.00;;;3.90;99.90;;;;;;7377844;32;20189;-60
2021/12/03 22:04:12;;;;;;;1.90;1.00;;;3.90;99.90;;;;;;7380483;32;20106;-59
2021/12/03 22:08:13;;;;;;;4.28;0.90;;;3.90;99.90;;;;;;7375392;32;20122;-59
2021/12/03 22:12:15;;;;;;;1.17;0.82;;;3.90;99.90;;;;;;7383417;32;20158;-60
2021/12/03 22:16:17;;;;;;;1.45;1.02;;;3.80;99.90;;;;;;7381050;32;20399;-60
2021/12/03 22:20:18;;;;;;;0.98;0.82;;;3.90;99.90;;;;;;7377660;32;20098;-60
2021/12/03 22:24:20;;;;;;;4.40;1.12;;;3.80;99.90;;;;;;7375931;32;20103;-59
2021/12/03 22:28:24;;;;;;;2.30;1.10;;;3.80;99.90;;;;;;7379335;32;20486;-60
2021/12/03 22:32:27;;;;;;;2.75;1.00;;;3.80;99.90;;;;;;7375850;32;20121;-60
2021/12/03 22:36:28;;;;;;;1.35;0.90;;;3.80;99.90;;;;;;7377104;32;20106;-59
2021/12/03 22:40:30;;;;;;;1.27;1.05;;;3.80;99.90;;;;;;7379073;32;20138;-59
2021/12/03 22:44:32;;;;;;;2.20;1.05;;;3.80;99.90;;;;;;7380719;32;20130;-60
2021/12/03 22:48:38;;;;;;;3.53;0.90;;;3.80;99.90;;;;;;7367990;32;20475;-59
2021/12/03 22:52:40;;;;;;;2.12;1.00;;;3.90;99.90;;;;;;7378981;32;20129;-60
2021/12/03 22:56:42;;;;;;;1.58;1.10;;;3.90;99.90;;;;;;7378571;32;20110;-60
2021/12/03 23:00:47;;;;;;;3.47;1.10;;;3.80;99.90;;;;;;7380358;32;20157;-59
2021/12/03 23:04:49;;;;;;;2.40;1.23;;;3.80;99.90;;;;;;7375574;32;20376;-60
2021/12/03 23:08:51;;;;;;;3.62;1.48;;;3.80;99.90;;;;;;7380416;32;20536;-59
2021/12/03 23:12:52;;;;;;;2.83;1.50;;;3.80;99.90;;;;;;7378966;32;20588;-59
2021/12/03 23:16:55;;;;;;;2.42;1.50;;;3.90;99.90;;;;;;7379169;32;20452;-60
2021/12/03 23:20:57;;;;;;;2.90;1.87;;;3.90;99.90;;;;;;7376659;32;20562;-60
2021/12/03 23:25:00;;;;;;;2.80;1.90;;;3.80;99.90;;;;;;7376233;32;20140;-60
2021/12/03 23:29:03;;;;;;;3.15;1.92;;;3.80;99.90;;;;;;7377725;32;20134;-59
2021/12/03 23:33:05;;;;;;;3.80;1.85;;;3.80;99.90;;;;;;7378301;32;20107;-60
2021/12/03 23:37:08;;;;;;;3.53;2.20;;;3.80;99.90;;;;;;7379883;32;20103;-58
2021/12/03 23:41:09;;;;;;;2.72;2.00;;;3.90;99.90;;;;;;7376203;32;20263;-58
2021/12/03 23:45:11;;;;;;;3.53;2.25;;;3.70;99.90;;;;;;7376078;32;20107;-59
2021/12/03 23:49:13;;;;;;;3.58;2.10;;;3.70;99.90;;;;;;7379844;32;20118;-59
2021/12/03 23:53:15;;;;;;;3.17;2.40;;;3.70;99.90;;;;;;7368179;32;20182;-58
2021/12/03 23:57:17;;;;;;;4.93;2.53;;;3.60;99.90;;;;;;7378427;32;20417;-59
